Time;durP1;ratioP1;P1;durP2;ratioP2;P2;SDS_P1;SDS_P2;PMS_P1;PMS_P2;Temp;Humidity;BMP_temperature;BMP_pressure;BME280_temperature;BME280_humidity;BME280_pressure;Samples;Min_cycle;Max_cycle;Signal;HPM_P1;HPM_P2
2023/06/21 00:01:42;;;;;;;6.10;5.50;;;;;;;28.35;41.32;101338.19;143732;604;48002;-85
2023/06/21 00:04:09;;;;;;;6.28;4.85;;;;;;;28.35;41.38;101334.63;143736;581;46008;-83
2023/06/21 00:06:37;;;;;;;6.60;5.70;;;;;;;28.34;41.22;101331.03;143737;590;45012;-84
2023/06/21 00:09:06;;;;;;;6.82;5.45;;;;;;;28.33;41.02;101334.91;143736;639;46006;-84
2023/06/21 00:11:33;;;;;;;5.90;5.15;;;;;;;28.32;41.34;101343.53;143733;619;47002;-86
2023/06/21 00:14:00;;;;;;;8.80;5.32;;;;;;;28.28;40.98;101335.84;143727;599;47010;-87
2023/06/21 00:16:27;;;;;;;6.47;5.12;;;;;;;28.28;41.10;101329.50;143735;614;46004;-87
2023/06/21 00:18:54;;;;;;;5.85;4.95;;;;;;;28.26;40.60;101323.47;143728;579;48006;-87
2023/06/21 00:21:24;;;;;;;5.95;4.80;;;;;;;28.25;41.02;101324.59;143735;574;47000;-86
2023/06/21 00:23:52;;;;;;;6.12;5.53;;;;;;;28.23;41.18;101322.16;143736;604;45924;-86
2023/06/21 00:26:22;;;;;;;5.65;5.03;;;;;;;28.21;41.06;101327.16;143736;595;45929;-86
2023/06/21 00:29:00;;;;;;;6.22;5.32;;;;;;;28.22;40.80;101326.03;143737;761;45010;-86
2023/06/21 00:31:30;;;;;;;6.15;5.55;;;;;;;28.25;40.60;101316.31;143736;569;47002;-85
2023/06/21 00:33:57;;;;;;;7.60;5.75;;;;;;;28.28;40.96;101324.00;143734;611;46011;-85
2023/06/21 00:36:24;;;;;;;6.97;5.18;;;;;;;28.29;40.77;101326.44;143736;572;46004;-85
2023/06/21 00:38:54;;;;;;;6.12;5.18;;;;;;;28.29;40.91;101320.91;143736;573;46002;-86
2023/06/21 00:41:24;;;;;;;6.18;5.57;;;;;;;28.28;40.76;101327.56;143737;652;46024;-86
2023/06/21 00:43:53;;;;;;;5.78;5.20;;;;;;;28.27;41.47;101328.69;143733;574;46008;-85
2023/06/21 00:46:21;;;;;;;8.55;5.32;;;;;;;28.24;41.37;101340.31;143739;583;45013;-87
2023/06/21 00:48:48;;;;;;;7.60;5.60;;;;;;;28.24;41.43;101331.22;143735;599;45922;-86
2023/06/21 00:51:14;;;;;;;7.18;5.93;;;;;;;28.20;41.54;101336.56;143739;574;46002;-84
2023/06/21 00:53:42;;;;;;;6.65;5.50;;;;;;;28.15;41.73;101342.16;143734;605;47004;-85
2023/06/21 00:56:09;;;;;;;10.38;5.60;;;;;;;28.12;41.30;101334.47;143736;572;46002;-85
2023/06/21 00:58:37;;;;;;;6.65;5.18;;;;;;;28.11;41.25;101333.69;143735;727;45922;-87
2023/06/21 01:01:04;;;;;;;6.47;5.78;;;;;;;28.09;40.87;101337.81;143740;584;45010;-87
2023/06/21 01:03:31;;;;;;;6.32;4.85;;;;;;;28.09;41.60;101335.06;143737;580;46002;-87
2023/06/21 01:06:32;;;;;;;6.62;5.20;;;;;;;28.07;41.60;101340.06;143737;597;46004;-86
2023/06/21 01:09:40;;;;;;;7.28;5.55;;;;;;;28.03;41.26;101337.09;143735;604;46006;-86
2023/06/21 01:12:58;;;;;;;8.02;5.78;;;;;;;27.97;41.43;101336.34;143737;572;46006;-86
2023/06/21 01:15:30;;;;;;;6.60;5.62;;;;;;;27.94;42.16;101339.72;143735;572;46010;-85
2023/06/21 01:18:00;;;;;;;8.68;5.30;;;;;;;27.93;41.67;101342.78;143733;605;47006;-86
2023/06/21 01:20:29;;;;;;;7.28;5.00;;;;;;;27.90;41.54;101337.88;143730;643;47008;-86
2023/06/21 01:23:09;;;;;;;11.52;5.60;;;;;;;27.88;41.56;101346.47;143738;576;46004;-86
2023/06/21 01:26:11;;;;;;;8.38;5.70;;;;;;;27.86;41.65;101348.69;143735;599;46012;-87
2023/06/21 01:29:28;;;;;;;5.75;5.07;;;;;;;27.86;41.10;101350.62;143737;632;46004;-87
2023/06/21 01:31:57;;;;;;;6.35;5.47;;;;;;;27.86;41.38;101351.47;143737;599;45011;-85
2023/06/21 01:34:24;;;;;;;7.97;5.68;;;;;;;27.88;41.58;101351.16;143740;583;45010;-85
2023/06/21 01:36:51;;;;;;;8.82;5.55;;;;;;;27.86;41.88;101345.09;143727;566;48010;-86
2023/06/21 01:39:18;;;;;;;7.95;5.68;;;;;;;27.84;41.81;101345.41;143736;577;46004;-85
2023/06/21 01:41:46;;;;;;;5.93;5.18;;;;;;;27.83;41.59;101354.81;143729;568;48006;-86
2023/06/21 01:44:16;;;;;;;5.80;5.12;;;;;;;27.82;40.99;101356.75;143737;597;47006;-86
2023/06/21 01:46:46;;;;;;;6.85;5.75;;;;;;;27.81;41.17;101354.28;143730;594;47010;-87
2023/06/21 01:49:15;;;;;;;12.27;5.97;;;;;;;27.80;41.81;101358.19;143736;588;46006;-87
2023/06/21 01:51:46;;;;;;;6.93;5.60;;;;;;;27.79;41.54;101357.38;143733;592;46002;-84
2023/06/21 01:54:15;;;;;;;7.87;5.68;;;;;;;27.80;41.30;101364.50;143738;582;46006;-86
2023/06/21 01:56:43;;;;;;;8.35;5.57;;;;;;;27.80;41.81;101363.69;143734;639;46032;-87
2023/06/21 01:59:10;;;;;;;8.65;5.60;;;;;;;27.80;41.25;101364.50;143732;572;47010;-87
2023/06/21 02:01:42;;;;;;;6.43;5.10;;;;;;;27.80;41.37;101375.53;143733;584;47009;-86
2023/06/21 02:04:10;;;;;;;9.45;5.70;;;;;;;27.78;41.12;101375.06;143740;574;45010;-85
2023/06/21 02:06:39;;;;;;;6.95;5.50;;;;;;;27.76;41.14;101377.28;143735;616;47008;-89
2023/06/21 02:09:06;;;;;;;7.20;5.97;;;;;;;27.75;41.25;101380.31;143737;580;45012;-87
2023/06/21 02:11:34;;;;;;;8.70;5.85;;;;;;;27.74;40.84;101375.94;143737;598;46008;-87
2023/06/21 02:14:00;;;;;;;6.68;5.43;;;;;;;27.71;41.37;101377.34;143740;588;46018;-90
2023/06/21 02:16:28;;;;;;;6.57;5.78;;;;;;;27.70;41.48;101384.00;143737;579;47012;-86
2023/06/21 02:18:55;;;;;;;7.03;5.12;;;;;;;27.70;41.47;101389.50;143736;599;47006;-87
2023/06/21 02:21:22;;;;;;;9.18;5.68;;;;;;;27.68;42.04;101389.00;143732;599;46006;-86
2023/06/21 02:23:50;;;;;;;8.73;6.07;;;;;;;27.67;41.63;101390.94;143734;569;47004;-86
2023/06/21 02:26:24;;;;;;;7.62;6.25;;;;;;;27.66;41.55;101389.28;143734;600;46032;-86
2023/06/21 02:28:51;;;;;;;7.87;5.68;;;;;;;27.65;41.19;101398.69;143739;585;45012;-86
2023/06/21 02:31:17;;;;;;;8.88;6.03;;;;;;;27.65;41.43;101408.91;143736;581;46009;-86
2023/06/21 02:33:48;;;;;;;11.12;6.35;;;;;;;27.63;41.89;101405.59;143741;572;45010;-84
2023/06/21 02:36:15;;;;;;;8.07;6.00;;;;;;;27.60;41.78;101401.50;143734;630;47012;-84
2023/06/21 02:38:42;;;;;;;8.50;5.32;;;;;;;27.60;41.73;101401.50;143737;618;46011;-87
2023/06/21 02:41:08;;;;;;;7.45;5.60;;;;;;;27.61;42.22;101402.34;143735;599;45925;-85
2023/06/21 02:43:35;;;;;;;11.57;5.62;;;;;;;27.58;42.45;101401.00;143741;589;46004;-87
2023/06/21 02:46:13;;;;;;;12.73;6.82;;;;;;;27.58;42.36;101409.28;143737;611;45012;-86
2023/06/21 02:48:42;;;;;;;7.35;6.30;;;;;;;27.58;42.21;101406.50;143738;702;45012;-88
2023/06/21 02:51:15;;;;;;;6.55;5.95;;;;;;;27.58;42.63;101409.28;143737;576;45924;-86
2023/06/21 02:53:45;;;;;;;8.70;6.62;;;;;;;27.60;42.32;101411.75;143735;645;47004;-85
2023/06/21 02:56:13;;;;;;;10.27;7.37;;;;;;;27.58;42.71;101406.50;143732;614;47013;-84
2023/06/21 02:58:39;;;;;;;8.00;6.37;;;;;;;27.60;42.78;101406.22;143738;572;45936;-86
2023/06/21 03:01:06;;;;;;;6.97;6.05;;;;;;;27.59;42.72;101412.87;143733;583;46009;-86
2023/06/21 03:03:33;;;;;;;9.45;6.70;;;;;;;27.56;43.33;101414.25;143740;582;45010;-85
2023/06/21 03:06:05;;;;;;;10.77;6.80;;;;;;;27.56;43.06;101422.53;143730;588;47012;-86
2023/06/21 03:08:32;;;;;;;10.18;6.12;;;;;;;27.56;43.18;101418.97;143733;592;47006;-85
2023/06/21 03:10:58;;;;;;;11.95;6.40;;;;;;;27.53;43.68;101423.16;143736;567;46008;-86
2023/06/21 03:13:25;;;;;;;8.93;6.43;;;;;;;27.51;44.15;101428.97;143739;591;46004;-85
2023/06/21 03:15:52;;;;;;;9.85;6.37;;;;;;;27.50;44.08;101426.50;143731;597;47012;-84
2023/06/21 03:18:19;;;;;;;9.68;6.55;;;;;;;27.48;44.33;101426.78;143738;678;47004;-87
2023/06/21 03:20:49;;;;;;;7.30;5.45;;;;;;;27.48;44.27;101437.00;143736;573;46004;-85
2023/06/21 03:23:17;;;;;;;10.57;6.53;;;;;;;27.46;44.94;101429.00;143735;604;47006;-86
2023/06/21 03:25:44;;;;;;;7.95;6.12;;;;;;;27.45;44.88;101432.06;143735;573;46008;-86
2023/06/21 03:28:13;;;;;;;8.65;5.85;;;;;;;27.46;44.90;101437.28;143738;592;45012;-85
2023/06/21 03:30:39;;;;;;;9.93;6.47;;;;;;;27.47;45.30;101438.13;143733;595;49004;-85
2023/06/21 03:33:07;;;;;;;7.85;5.80;;;;;;;27.46;44.98;101445.56;143736;596;50008;-87
2023/06/21 03:35:33;;;;;;;9.40;5.82;;;;;;;27.45;45.05;101443.09;143737;602;46010;-87
2023/06/21 03:38:00;;;;;;;10.50;6.40;;;;;;;27.45;45.10;101448.59;143737;584;46005;-85
2023/06/21 03:40:27;;;;;;;11.02;6.55;;;;;;;27.43;45.42;101454.44;143736;572;46008;-87
2023/06/21 03:42:55;;;;;;;13.57;6.68;;;;;;;27.43;45.75;101457.19;143740;566;46010;-86
2023/06/21 03:45:22;;;;;;;16.48;7.90;;;;;;;27.42;46.68;101461.06;143735;577;47012;-87
2023/06/21 03:47:48;;;;;;;16.50;7.47;;;;;;;27.42;47.31;101454.69;143736;586;46004;-84
2023/06/21 03:50:15;;;;;;;10.18;7.72;;;;;;;27.41;47.47;101464.09;143736;586;46008;-84
2023/06/21 03:52:43;;;;;;;12.52;7.25;;;;;;;27.39;47.81;101459.69;143736;568;47006;-86
2023/06/21 03:55:10;;;;;;;13.62;7.80;;;;;;;27.39;47.64;101454.19;143735;585;46013;-86
2023/06/21 03:57:38;;;;;;;20.67;8.15;;;;;;;27.39;47.58;101467.16;143735;566;46012;-86
2023/06/21 04:00:12;;;;;;;12.95;7.30;;;;;;;27.38;47.59;101469.09;143734;595;47008;-86
2023/06/21 04:02:41;;;;;;;10.48;7.10;;;;;;;27.39;47.36;101467.16;143739;657;47004;-84
2023/06/21 04:05:10;;;;;;;13.27;7.00;;;;;;;27.41;47.28;101470.44;143735;609;46010;-87
2023/06/21 04:07:38;;;;;;;11.23;6.78;;;;;;;27.39;47.40;101473.50;143737;596;46014;-86
2023/06/21 04:10:05;;;;;;;12.07;6.53;;;;;;;27.39;47.43;101470.72;143729;572;50006;-84
2023/06/21 04:12:33;;;;;;;14.13;7.32;;;;;;;27.40;47.54;101474.31;143738;612;47006;-83
2023/06/21 04:15:03;;;;;;;9.98;6.68;;;;;;;27.40;47.80;101477.09;143735;601;46011;-86
2023/06/21 04:17:33;;;;;;;10.30;6.72;;;;;;;27.42;47.92;101480.38;143737;589;46006;-87
2023/06/21 04:20:01;;;;;;;12.77;7.00;;;;;;;27.43;47.90;101481.19;143734;572;47008;-85
2023/06/21 04:22:29;;;;;;;13.70;7.72;;;;;;;27.44;48.20;101478.16;143734;605;47006;-86
2023/06/21 04:24:56;;;;;;;13.77;6.75;;;;;;;27.46;47.93;101488.91;143738;601;45922;-87
2023/06/21 04:27:22;;;;;;;10.30;6.75;;;;;;;27.49;47.71;101488.31;143737;569;46013;-85
2023/06/21 04:29:51;;;;;;;11.12;7.40;;;;;;;27.53;47.85;101486.62;143732;574;47007;-84
2023/06/21 04:32:23;;;;;;;11.43;7.10;;;;;;;27.54;48.40;101491.81;143735;662;47006;-86
2023/06/21 04:34:49;;;;;;;10.43;6.70;;;;;;;27.57;48.22;101498.69;143737;601;46012;-86
2023/06/21 04:37:21;;;;;;;9.00;7.00;;;;;;;27.62;48.55;101497.81;143733;623;47006;-85
2023/06/21 04:39:48;;;;;;;9.85;6.82;;;;;;;27.64;48.60;101499.16;143738;599;45010;-85
2023/06/21 04:42:14;;;;;;;10.43;6.57;;;;;;;27.67;48.31;101504.09;143740;602;46008;-86
2023/06/21 04:44:41;;;;;;;10.73;7.18;;;;;;;27.71;49.27;101503.50;143738;595;46026;-86
2023/06/21 04:47:07;;;;;;;10.00;7.22;;;;;;;27.73;49.00;101502.06;143737;579;47005;-85
2023/06/21 04:49:35;;;;;;;7.60;6.75;;;;;;;27.78;49.07;101512.22;143736;584;46008;-84
2023/06/21 04:52:01;;;;;;;9.25;7.10;;;;;;;27.80;49.29;101513.56;143741;573;46006;-86
2023/06/21 04:54:29;;;;;;;8.65;6.93;;;;;;;27.84;49.07;101522.91;143731;608;47013;-88
2023/06/21 04:56:56;;;;;;;7.50;6.72;;;;;;;27.88;49.12;101517.63;143739;569;46006;-87
2023/06/21 04:59:22;;;;;;;7.93;6.57;;;;;;;27.89;49.63;101519.25;143732;590;47008;-85
2023/06/21 05:02:00;;;;;;;9.48;6.62;;;;;;;27.94;49.69;101527.47;143739;602;46007;-86
2023/06/21 05:04:37;;;;;;;9.73;6.50;;;;;;;27.99;49.84;101521.03;143737;619;46004;-89
2023/06/21 05:07:05;;;;;;;6.45;5.75;;;;;;;28.05;49.96;101528.13;143737;567;45926;-88
2023/06/21 05:09:32;;;;;;;9.50;6.32;;;;;;;28.12;50.24;101531.38;143736;605;46008;-84
2023/06/21 05:11:59;;;;;;;8.93;6.45;;;;;;;28.15;50.49;101529.97;143732;572;47008;-86
2023/06/21 05:14:26;;;;;;;8.45;6.05;;;;;;;28.21;50.64;101527.94;143738;578;46010;-85
2023/06/21 05:16:53;;;;;;;6.82;6.12;;;;;;;28.22;50.12;101530.44;143730;655;47006;-85
2023/06/21 05:19:20;;;;;;;7.50;5.87;;;;;;;28.24;49.45;101528.16;143736;579;46008;-84
2023/06/21 05:21:47;;;;;;;6.78;5.82;;;;;;;28.27;48.99;101524.00;143734;604;48002;-85
2023/06/21 05:24:13;;;;;;;6.60;5.87;;;;;;;28.31;48.46;101530.56;143737;573;46006;-85
2023/06/21 05:26:44;;;;;;;6.25;5.40;;;;;;;28.32;48.18;101534.13;143739;584;45012;-85
2023/06/21 05:29:13;;;;;;;7.95;5.93;;;;;;;28.35;47.94;101539.06;143738;591;45924;-88
2023/06/21 05:31:43;;;;;;;6.07;5.50;;;;;;;28.37;48.31;101534.06;143739;582;47002;-85
2023/06/21 05:34:11;;;;;;;6.65;5.85;;;;;;;28.38;48.65;101536.50;143737;581;46010;-86
2023/06/21 05:36:37;;;;;;;6.87;6.28;;;;;;;28.40;48.42;101530.72;143739;604;45013;-86
2023/06/21 05:39:05;;;;;;;7.12;5.45;;;;;;;28.40;48.51;101539.81;143736;600;46008;-84
2023/06/21 05:41:33;;;;;;;6.97;6.15;;;;;;;28.43;48.18;101541.97;143740;572;46002;-85
2023/06/21 05:44:00;;;;;;;9.50;6.20;;;;;;;28.45;48.33;101541.66;143735;577;46010;-87
2023/06/21 05:46:27;;;;;;;10.20;5.90;;;;;;;28.48;48.28;101543.03;143735;569;46007;-87
2023/06/21 05:48:54;;;;;;;6.18;5.47;;;;;;;28.51;47.84;101539.63;143733;589;47008;-85
2023/06/21 05:51:22;;;;;;;7.80;5.62;;;;;;;28.53;47.82;101543.75;143740;598;46006;-86
2023/06/21 05:53:49;;;;;;;7.28;5.45;;;;;;;28.56;47.53;101537.63;143731;587;47013;-85
2023/06/21 05:56:16;;;;;;;7.50;5.35;;;;;;;28.60;47.54;101535.06;143737;612;46006;-83
2023/06/21 05:58:43;;;;;;;7.62;6.35;;;;;;;28.63;47.45;101533.62;143731;584;46008;-83
2023/06/21 06:01:13;;;;;;;8.23;6.30;;;;;;;28.66;48.14;101541.34;143739;573;46007;-86
2023/06/21 06:03:40;;;;;;;10.82;6.57;;;;;;;28.68;48.27;101541.84;143731;578;47012;-85
2023/06/21 06:06:08;;;;;;;8.98;6.22;;;;;;;28.69;47.17;101543.50;143734;604;47010;-86
2023/06/21 06:08:35;;;;;;;6.30;5.70;;;;;;;28.71;47.06;101544.81;143737;728;46008;-84
2023/06/21 06:11:02;;;;;;;7.97;6.00;;;;;;;28.72;46.99;101538.19;143740;637;46004;-86
2023/06/21 06:13:30;;;;;;;8.25;6.85;;;;;;;28.75;46.91;101553.38;143748;658;45012;-85
2023/06/21 06:15:57;;;;;;;6.65;6.05;;;;;;;28.77;46.99;101550.31;143766;662;44927;-85
2023/06/21 06:18:23;;;;;;;7.78;6.10;;;;;;;28.78;46.49;101544.47;143767;579;44924;-88
2023/06/21 06:20:50;;;;;;;8.45;5.90;;;;;;;28.74;47.03;101538.72;143768;644;45004;-85
2023/06/21 06:23:17;;;;;;;7.75;6.30;;;;;;;28.76;46.96;101543.97;143745;606;45922;-84
2023/06/21 06:25:45;;;;;;;6.32;5.72;;;;;;;28.74;46.42;101549.78;143742;572;46006;-87
2023/06/21 06:28:12;;;;;;;6.60;5.90;;;;;;;28.75;46.92;101561.69;143746;593;45011;-84
2023/06/21 06:30:39;;;;;;;6.68;5.95;;;;;;;28.71;47.07;101553.13;143741;585;46004;-84
2023/06/21 06:33:06;;;;;;;9.40;5.72;;;;;;;28.67;46.70;101554.03;143738;628;46010;-87
2023/06/21 06:35:33;;;;;;;7.32;5.72;;;;;;;28.73;46.64;101552.84;143739;672;47006;-84
2023/06/21 06:38:00;;;;;;;9.52;7.15;;;;;;;28.74;45.83;101552.56;143766;628;45009;-84
2023/06/21 06:40:27;;;;;;;6.78;4.90;;;;;;;28.68;43.88;101550.94;143759;625;46004;-83
2023/06/21 06:42:54;;;;;;;13.02;11.45;;;;;;;28.66;44.82;101549.63;143763;660;45012;-82
2023/06/21 06:45:21;;;;;;;10.68;9.50;;;;;;;28.70;44.24;101545.94;143734;616;47004;-84
2023/06/21 06:47:48;;;;;;;10.27;5.15;;;;;;;28.73;44.17;101556.44;143741;751;47008;-83
2023/06/21 06:50:14;;;;;;;5.32;4.82;;;;;;;28.73;44.66;101550.91;143743;566;46002;-83
2023/06/21 06:52:41;;;;;;;13.13;5.50;;;;;;;28.64;44.32;101541.66;143745;570;46010;-83
2023/06/21 06:55:08;;;;;;;6.90;4.78;;;;;;;28.70;45.04;101547.91;143743;599;47006;-90
2023/06/21 06:57:36;;;;;;;5.90;5.00;;;;;;;28.74;44.81;101540.69;143739;646;45017;-83
2023/06/21 07:00:08;;;;;;;6.30;4.80;;;;;;;28.74;44.78;101544.25;143744;575;47006;-82
2023/06/21 07:02:35;;;;;;;5.87;4.47;;;;;;;28.77;44.98;101544.78;143744;572;46028;-83
2023/06/21 07:05:01;;;;;;;8.18;4.37;;;;;;;28.64;44.49;101540.81;143744;592;45927;-84
2023/06/21 07:07:29;;;;;;;7.15;5.30;;;;;;;28.57;44.82;101544.81;143743;706;46006;-83
2023/06/21 07:09:55;;;;;;;6.82;6.05;;;;;;;28.60;45.37;101555.22;143746;612;46004;-83
2023/06/21 07:12:22;;;;;;;8.52;7.32;;;;;;;28.62;44.88;101543.06;143743;599;46010;-83
2023/06/21 07:14:49;;;;;;;12.70;8.45;;;;;;;28.66;45.08;101542.16;143742;595;46002;-82
2023/06/21 07:17:17;;;;;;;6.80;5.03;;;;;;;28.64;45.77;101538.87;143732;569;47015;-83
2023/06/21 07:19:56;;;;;;;6.20;4.70;;;;;;;28.60;45.89;101549.69;143742;570;47004;-83
2023/06/21 07:22:24;;;;;;;6.18;5.30;;;;;;;28.52;46.31;101550.41;143734;621;46009;-83
2023/06/21 07:24:51;;;;;;;8.23;5.47;;;;;;;28.41;46.87;101552.50;143734;623;47002;-84
2023/06/21 07:27:19;;;;;;;6.60;5.47;;;;;;;28.46;46.48;101546.06;143740;580;46006;-83
2023/06/21 07:29:46;;;;;;;7.60;5.35;;;;;;;28.47;46.54;101550.47;143744;569;47004;-82
2023/06/21 07:32:13;;;;;;;6.75;5.72;;;;;;;28.47;46.70;101544.12;143737;705;47010;-84
2023/06/21 07:34:40;;;;;;;6.03;5.20;;;;;;;28.49;46.88;101547.44;143742;647;46004;-82
2023/06/21 07:37:07;;;;;;;6.57;5.50;;;;;;;28.41;46.46;101543.41;143740;726;45010;-83
2023/06/21 07:39:34;;;;;;;8.70;5.20;;;;;;;28.42;46.93;101554.16;143745;583;47004;-82
2023/06/21 07:42:04;;;;;;;6.03;5.35;;;;;;;28.38;46.25;101544.00;143741;602;45922;-84
2023/06/21 07:44:31;;;;;;;7.90;5.15;;;;;;;28.40;46.13;101550.84;143737;584;47003;-83
2023/06/21 07:46:58;;;;;;;7.53;4.60;;;;;;;28.38;44.92;101547.56;143729;638;47002;-83
2023/06/21 07:49:25;;;;;;;5.72;4.75;;;;;;;28.41;44.89;101546.16;143745;609;46006;-82
2023/06/21 07:51:52;;;;;;;8.60;5.87;;;;;;;28.51;45.40;101536.88;143742;653;45923;-82
2023/06/21 07:54:19;;;;;;;8.98;6.68;;;;;;;28.51;45.82;101546.00;143744;718;45008;-80
2023/06/21 07:56:46;;;;;;;7.62;5.45;;;;;;;28.51;46.04;101543.22;143737;628;47002;-83
2023/06/21 07:59:12;;;;;;;8.85;6.10;;;;;;;28.49;46.76;101539.94;143745;569;46010;-83
2023/06/21 08:01:39;;;;;;;10.95;6.57;;;;;;;28.48;48.28;101543.81;143743;603;45923;-82
2023/06/21 08:04:06;;;;;;;8.45;6.65;;;;;;;28.57;48.13;101542.03;143739;590;46009;-83
2023/06/21 08:06:33;;;;;;;7.25;6.03;;;;;;;28.60;47.54;101540.59;143742;632;45010;-81
2023/06/21 08:09:00;;;;;;;8.63;7.10;;;;;;;28.62;46.93;101543.88;143747;742;45010;-83
2023/06/21 08:11:27;;;;;;;8.23;6.78;;;;;;;28.60;47.91;101533.12;143732;566;49923;-83
2023/06/21 08:13:55;;;;;;;10.02;7.28;;;;;;;28.56;47.28;101543.16;143727;597;48004;-82
2023/06/21 08:16:22;;;;;;;9.60;6.12;;;;;;;28.63;47.40;101548.28;143736;572;45010;-81
2023/06/21 08:18:49;;;;;;;7.70;6.85;;;;;;;28.65;47.97;101540.53;143737;592;46007;-80
2023/06/21 08:21:15;;;;;;;9.55;6.85;;;;;;;28.63;47.21;101540.00;143733;581;47010;-81
2023/06/21 08:23:43;;;;;;;9.15;6.60;;;;;;;28.65;47.28;101537.75;143730;747;47004;-81
2023/06/21 08:26:14;;;;;;;8.07;7.20;;;;;;;28.69;46.90;101538.78;143724;646;56019;-80
2023/06/21 08:28:41;;;;;;;8.40;7.07;;;;;;;28.71;48.37;101542.06;143735;574;47002;-81
2023/06/21 08:31:08;;;;;;;12.40;8.13;;;;;;;28.73;47.74;101539.00;143730;630;46923;-81
2023/06/21 08:33:35;;;;;;;9.18;5.90;;;;;;;28.66;47.06;101539.41;143736;591;46002;-81
2023/06/21 08:36:01;;;;;;;7.87;7.07;;;;;;;28.71;46.90;101535.72;143737;671;45021;-80
2023/06/21 08:38:28;;;;;;;9.10;6.25;;;;;;;28.78;46.93;101538.13;143738;568;46002;-81
2023/06/21 08:41:00;;;;;;;9.25;8.20;;;;;;;28.76;47.42;101535.69;143731;572;46010;-80
2023/06/21 08:43:28;;;;;;;9.57;6.90;;;;;;;28.71;47.49;101531.00;143735;609;46012;-80
2023/06/21 08:45:55;;;;;;;7.65;6.37;;;;;;;28.65;47.18;101539.69;143734;638;47002;-79
2023/06/21 08:48:29;;;;;;;6.60;5.97;;;;;;;28.72;46.68;101538.19;143735;734;47004;-80
2023/06/21 08:50:58;;;;;;;5.97;5.35;;;;;;;28.82;46.26;101528.91;143736;625;45922;-78
2023/06/21 08:53:37;;;;;;;5.93;5.28;;;;;;;28.90;46.01;101527.41;143736;649;46002;-80
2023/06/21 08:56:05;;;;;;;5.80;5.20;;;;;;;28.93;45.41;101528.75;143733;688;47002;-80
2023/06/21 08:58:41;;;;;;;10.60;5.75;;;;;;;28.94;45.56;101525.69;143739;569;45010;-79
2023/06/21 09:01:10;;;;;;;10.07;4.78;;;;;;;28.93;44.67;101520.47;143733;575;47010;-79
2023/06/21 09:03:56;;;;;;;5.78;5.22;;;;;;;28.90;44.58;101524.63;143732;649;47004;-80
2023/06/21 09:06:24;;;;;;;6.18;5.00;;;;;;;28.91;44.42;101528.22;143732;589;46007;-80
2023/06/21 09:08:54;;;;;;;5.60;5.00;;;;;;;28.96;44.60;101528.97;143739;680;45014;-80
2023/06/21 09:11:22;;;;;;;7.30;4.60;;;;;;;28.95;44.03;101526.47;143735;655;46010;-80
2023/06/21 09:13:49;;;;;;;11.98;4.20;;;;;;;28.85;44.07;101525.56;143737;648;45012;-79
2023/06/21 09:16:17;;;;;;;7.55;4.40;;;;;;;28.88;44.08;101524.94;143736;606;45925;-79
2023/06/21 09:18:46;;;;;;;8.75;4.90;;;;;;;28.91;44.21;101525.47;143739;597;45010;-80
2023/06/21 09:21:14;;;;;;;5.35;4.32;;;;;;;28.96;44.07;101526.19;143731;592;46008;-79
2023/06/21 09:23:41;;;;;;;5.43;4.30;;;;;;;28.99;44.30;101514.53;143731;581;46927;-80
2023/06/21 09:26:08;;;;;;;6.72;4.47;;;;;;;29.05;44.46;101523.53;143733;572;46006;-81
2023/06/21 09:28:36;;;;;;;8.57;4.82;;;;;;;29.13;44.77;101511.75;143738;588;45576;-81
2023/06/21 09:31:03;;;;;;;5.78;4.95;;;;;;;29.17;45.29;101514.75;143722;583;50004;-80
2023/06/21 09:33:29;;;;;;;6.47;5.07;;;;;;;29.22;44.78;101502.75;143734;688;47002;-80
2023/06/21 09:36:08;;;;;;;6.03;4.65;;;;;;;29.28;44.70;101515.37;143735;574;46006;-81
2023/06/21 09:38:44;;;;;;;6.15;4.50;;;;;;;29.32;44.71;101510.84;143738;566;46002;-75
2023/06/21 09:41:11;;;;;;;7.72;5.25;;;;;;;29.40;44.72;101512.09;143733;612;46010;-80
2023/06/21 09:43:45;;;;;;;4.93;4.30;;;;;;;29.47;43.69;101512.53;143737;630;45012;-77
2023/06/21 09:46:13;;;;;;;7.37;4.53;;;;;;;29.50;43.63;101507.19;143735;572;45924;-80
2023/06/21 09:48:41;;;;;;;5.85;5.25;;;;;;;29.54;44.54;101506.56;143734;627;47004;-79
2023/06/21 09:51:10;;;;;;;6.80;4.90;;;;;;;29.56;43.92;101512.63;143734;580;46008;-77
2023/06/21 09:53:37;;;;;;;5.57;4.65;;;;;;;29.60;44.26;101499.81;143734;586;45012;-79
2023/06/21 09:56:04;;;;;;;6.53;5.25;;;;;;;29.65;45.05;101496.94;143725;592;48006;-77
2023/06/21 09:58:34;;;;;;;5.90;4.30;;;;;;;29.63;44.53;101491.69;143739;626;45010;-78
2023/06/21 10:01:06;;;;;;;4.87;4.40;;;;;;;29.70;44.48;101499.56;143736;614;46028;-79
2023/06/21 10:03:34;;;;;;;6.40;4.82;;;;;;;29.71;44.36;101492.91;143734;582;47004;-77
2023/06/21 10:06:03;;;;;;;6.28;4.60;;;;;;;29.74;44.39;101502.56;143732;580;47002;-78
2023/06/21 10:08:36;;;;;;;6.95;4.90;;;;;;;29.70;43.83;101494.03;143740;584;45010;-77
2023/06/21 10:11:03;;;;;;;6.35;5.07;;;;;;;29.82;43.64;101501.00;143734;579;46008;-76
2023/06/21 10:13:33;;;;;;;5.78;4.32;;;;;;;29.87;43.05;101498.94;143734;603;47002;-78
2023/06/21 10:16:01;;;;;;;5.72;4.95;;;;;;;29.87;43.39;101490.63;143731;623;47019;-78
2023/06/21 10:18:28;;;;;;;6.22;4.65;;;;;;;29.85;43.24;101489.28;143735;592;47004;-78
2023/06/21 10:21:03;;;;;;;6.75;4.97;;;;;;;29.88;43.88;101491.44;143734;581;47008;-77
2023/06/21 10:23:31;;;;;;;5.40;4.90;;;;;;;29.89;44.18;101488.38;143735;593;47002;-78
2023/06/21 10:26:12;;;;;;;8.75;7.37;;;;;;;29.88;43.78;101483.97;143737;608;45010;-77
2023/06/21 10:28:42;;;;;;;6.47;5.68;;;;;;;29.86;44.12;101488.16;143739;656;45010;-80
2023/06/21 10:31:13;;;;;;;6.80;4.95;;;;;;;29.79;44.18;101488.59;143736;633;46027;-77
2023/06/21 10:33:43;;;;;;;6.90;4.93;;;;;;;29.85;43.37;101483.75;143730;680;47004;-78
2023/06/21 10:36:17;;;;;;;5.70;4.82;;;;;;;29.85;43.89;101480.97;143718;589;48002;-77
2023/06/21 10:38:47;;;;;;;6.30;4.50;;;;;;;29.85;44.15;101481.81;143737;573;47004;-77
2023/06/21 10:41:15;;;;;;;4.87;4.35;;;;;;;29.88;43.84;101480.34;143734;596;46010;-78
2023/06/21 10:43:42;;;;;;;4.97;4.50;;;;;;;29.99;44.40;101492.88;143734;607;46016;-78
2023/06/21 10:46:11;;;;;;;5.60;5.05;;;;;;;29.98;44.55;101479.34;143732;610;47006;-77
2023/06/21 10:48:39;;;;;;;5.35;4.85;;;;;;;29.91;44.47;101475.03;143736;579;47002;-76
2023/06/21 10:51:06;;;;;;;7.25;5.22;;;;;;;29.98;44.99;101479.34;143732;588;47008;-79
2023/06/21 10:53:34;;;;;;;5.32;4.55;;;;;;;29.97;44.92;101470.22;143735;569;46002;-76
2023/06/21 10:56:04;;;;;;;5.32;4.55;;;;;;;29.95;45.01;101469.69;143736;615;45924;-77
2023/06/21 10:58:31;;;;;;;6.60;4.75;;;;;;;29.91;44.83;101466.72;143732;580;47004;-76
2023/06/21 11:00:58;;;;;;;5.57;5.00;;;;;;;29.97;44.55;101472.16;143736;575;45922;-77
2023/06/21 11:03:26;;;;;;;4.65;4.25;;;;;;;30.05;44.16;101474.19;143734;574;47004;-79
2023/06/21 11:06:16;;;;;;;5.37;4.75;;;;;;;30.06;43.63;101475.84;143736;642;45010;-78
2023/06/21 11:08:43;;;;;;;7.43;5.10;;;;;;;30.10;43.40;101466.56;143737;597;46000;-78
2023/06/21 11:11:30;;;;;;;5.45;4.35;;;;;;;30.13;43.34;101464.31;143731;598;47008;-77
2023/06/21 11:13:59;;;;;;;5.43;3.78;;;;;;;30.20;43.24;101476.59;143737;567;45012;-76
2023/06/21 11:16:29;;;;;;;4.70;4.12;;;;;;;30.20;42.48;101471.06;143736;568;45924;-77
2023/06/21 11:18:59;;;;;;;5.85;4.50;;;;;;;30.27;41.86;101467.84;143735;566;47000;-78
2023/06/21 11:21:47;;;;;;;5.85;4.85;;;;;;;30.27;41.53;101462.28;143737;636;45011;-77
2023/06/21 11:24:18;;;;;;;5.78;5.05;;;;;;;30.37;41.23;101466.75;143735;620;46008;-78
2023/06/21 11:27:13;;;;;;;4.20;3.80;;;;;;;30.35;40.68;101452.41;143737;570;45011;-77
2023/06/21 11:29:41;;;;;;;5.85;4.12;;;;;;;30.38;40.99;101454.53;143740;586;45010;-79
2023/06/21 11:32:10;;;;;;;5.00;4.50;;;;;;;30.38;40.88;101447.03;143729;608;47010;-76
2023/06/21 11:34:37;;;;;;;5.12;4.12;;;;;;;30.35;41.13;101444.91;143737;646;45013;-77